Time;durP1;ratioP1;P1;durP2;ratioP2;P2;SDS_P1;SDS_P2;PMS_P1;PMS_P2;Temp;Humidity;BMP_temperature;BMP_pressure;BME280_temperature;BME280_humidity;BME280_pressure;Samples;Min_cycle;Max_cycle;Signal;HPM_P1;HPM_P2
2022/12/30 00:10:44;;;;;;;13.50;8.40;;;7.50;99.90;;;;;;6017585;23;20280;-91
2022/12/30 00:56:23;;;;;;;16.85;11.32;;;6.60;99.90;;;;;;5753060;23;20245;-89
2022/12/30 01:04:14;;;;;;;18.77;11.30;;;6.70;99.90;;;;;;5281384;23;20214;-88
2022/12/30 01:09:16;;;;;;;19.58;10.10;;;6.80;99.90;;;;;;6001216;23;20180;-91
2022/12/30 01:25:13;;;;;;;18.52;11.40;;;7.10;99.90;;;;;;5764787;23;20240;-89
2022/12/30 01:27:40;;;;;;;13.60;10.52;;;7.40;99.90;;;;;;5016516;28;20266;-87
2022/12/30 01:30:08;;;;;;;12.82;10.02;;;7.50;99.90;;;;;;5012199;28;20196;-88
2022/12/30 02:32:02;;;;;;;13.25;9.32;;;8.30;99.90;;;;;;5951381;23;20579;-88
2022/12/30 02:35:05;;;;;;;11.95;8.50;;;8.40;99.90;;;;;;5016284;28;20196;-86
2022/12/30 02:37:41;;;;;;;9.63;8.40;;;8.50;99.90;;;;;;5735699;23;20236;-88
2022/12/30 03:07:28;;;;;;;20.80;9.15;;;7.90;99.90;;;;;;5184667;23;20248;-91
2022/12/30 03:12:27;;;;;;;13.88;9.52;;;7.70;99.90;;;;;;5008345;28;20209;-88
2022/12/30 03:15:00;;;;;;;14.68;8.85;;;7.80;99.90;;;;;;4999963;28;20219;-89
2022/12/30 03:20:19;;;;;;;16.08;9.40;;;8.20;99.90;;;;;;5156149;23;20272;-88
2022/12/30 03:31:00;;;;;;;14.77;9.10;;;8.20;99.90;;;;;;5134974;23;20244;-89
2022/12/30 03:39:16;;;;;;;11.05;7.05;;;8.30;99.90;;;;;;5432958;23;20243;-86
2022/12/30 03:44:21;;;;;;;9.10;6.75;;;8.00;99.90;;;;;;5038221;22;20259;-88
2022/12/30 03:46:48;;;;;;;8.07;7.15;;;8.00;99.90;;;;;;5012863;28;20238;-87
2022/12/30 03:49:16;;;;;;;9.63;7.03;;;8.00;99.90;;;;;;5022598;28;20201;-88
2022/12/30 03:51:44;;;;;;;11.85;8.00;;;8.10;99.90;;;;;;5913802;23;20187;-90
2022/12/30 04:02:11;;;;;;;8.88;6.72;;;8.00;99.90;;;;;;5502225;23;20234;-89
2022/12/30 04:04:38;;;;;;;10.15;6.93;;;8.20;99.90;;;;;;5472319;23;20268;-87
2022/12/30 04:07:05;;;;;;;12.02;5.10;;;8.20;99.90;;;;;;5016220;28;20221;-88
2022/12/30 04:09:32;;;;;;;8.18;5.80;;;8.40;99.90;;;;;;5353902;23;20233;-87
2022/12/30 04:11:59;;;;;;;10.05;5.53;;;8.30;99.90;;;;;;5025054;28;20218;-88
2022/12/30 04:19:50;;;;;;;6.97;4.60;;;8.40;99.90;;;;;;6014351;23;20216;-89
2022/12/30 04:22:17;;;;;;;11.75;5.80;;;8.60;99.90;;;;;;5412909;23;20496;-87
2022/12/30 04:24:44;;;;;;;9.18;5.93;;;8.50;99.90;;;;;;5224818;23;20233;-86
2022/12/30 04:27:11;;;;;;;6.00;4.18;;;8.50;99.90;;;;;;5700941;23;20228;-89
2022/12/30 04:29:39;;;;;;;7.60;5.75;;;8.60;99.90;;;;;;5022257;28;20573;-87
2022/12/30 04:34:47;;;;;;;9.75;5.43;;;8.50;99.90;;;;;;5598652;23;20551;-89
2022/12/30 04:37:14;;;;;;;12.25;6.72;;;8.40;99.90;;;;;;4999596;28;20218;-90
2022/12/30 04:42:16;;;;;;;4.90;4.40;;;8.50;99.90;;;;;;5622603;23;20265;-88
2022/12/30 04:47:19;;;;;;;7.65;4.82;;;8.40;99.90;;;;;;5455781;23;20253;-86
2022/12/30 04:49:47;;;;;;;7.47;5.03;;;8.50;99.90;;;;;;5008063;28;20260;-88
2022/12/30 04:52:14;;;;;;;9.77;5.32;;;8.40;99.90;;;;;;5022025;28;20269;-88
2022/12/30 04:54:43;;;;;;;6.60;5.32;;;8.60;99.90;;;;;;5542193;23;20233;-87
2022/12/30 05:21:28;;;;;;;6.15;4.95;;;8.60;99.90;;;;;;5847088;23;20222;-92
2022/12/30 05:26:45;;;;;;;7.45;5.57;;;8.50;99.90;;;;;;5007452;28;20227;-90
2022/12/30 05:29:15;;;;;;;5.90;4.90;;;8.60;99.90;;;;;;4991079;28;20196;-90
2022/12/30 05:42:33;;;;;;;5.30;4.57;;;8.70;99.90;;;;;;5207065;22;20268;-90
2022/12/30 05:45:00;;;;;;;7.25;5.13;;;8.70;99.90;;;;;;5014287;28;20234;-90
2022/12/30 05:47:27;;;;;;;8.35;4.80;;;8.60;99.90;;;;;;5002030;28;20238;-90
2022/12/30 05:49:54;;;;;;;6.70;5.75;;;8.80;99.90;;;;;;5001763;28;20207;-88
2022/12/30 05:52:24;;;;;;;6.15;3.88;;;8.90;99.90;;;;;;5170341;22;20240;-89
2022/12/30 06:02:51;;;;;;;7.25;5.60;;;8.90;99.90;;;;;;5585673;23;20206;-91
2022/12/30 06:05:22;;;;;;;6.03;4.50;;;8.90;99.90;;;;;;5019644;28;20190;-89
2022/12/30 06:26:45;;;;;;;8.30;5.50;;;7.60;99.90;;;;;;5023904;23;20214;-89
2022/12/30 06:29:15;;;;;;;6.57;5.22;;;7.60;99.90;;;;;;4995768;28;20239;-89
2022/12/30 06:58:32;;;;;;;6.85;5.50;;;7.50;99.90;;;;;;5553198;23;20241;-84
2022/12/30 07:00:59;;;;;;;9.75;5.88;;;7.40;99.90;;;;;;4998845;28;20211;-84
2022/12/30 07:03:26;;;;;;;9.02;6.45;;;7.20;99.90;;;;;;5006951;28;20506;-84
2022/12/30 07:05:53;;;;;;;9.95;6.03;;;7.20;99.90;;;;;;5005601;28;20580;-85
2022/12/30 07:08:20;;;;;;;11.30;6.75;;;7.20;99.90;;;;;;4996049;28;20218;-84
2022/12/30 07:10:49;;;;;;;11.93;7.05;;;7.20;99.90;;;;;;4995910;28;20209;-85
2022/12/30 07:13:18;;;;;;;8.95;6.35;;;7.20;99.90;;;;;;5012212;28;20209;-84
2022/12/30 07:15:47;;;;;;;11.75;5.70;;;7.10;99.90;;;;;;5009200;28;20260;-85
2022/12/30 07:18:15;;;;;;;7.75;5.65;;;6.80;99.90;;;;;;5017847;28;20205;-84
2022/12/30 07:20:42;;;;;;;6.53;5.65;;;6.80;99.90;;;;;;5010494;28;20323;-85
2022/12/30 07:23:09;;;;;;;10.77;6.15;;;7.00;99.90;;;;;;5006470;28;20200;-85
2022/12/30 07:25:37;;;;;;;13.80;7.07;;;7.20;99.90;;;;;;5007077;28;20247;-85
2022/12/30 07:28:05;;;;;;;18.10;8.30;;;7.30;99.90;;;;;;5008691;28;20228;-84
2022/12/30 07:30:32;;;;;;;14.98;7.80;;;7.10;99.90;;;;;;5019551;28;20214;-85
2022/12/30 07:33:01;;;;;;;10.57;7.28;;;7.10;99.90;;;;;;5009137;28;20216;-84
2022/12/30 07:35:28;;;;;;;14.05;8.40;;;7.20;99.90;;;;;;5010502;28;20209;-83
2022/12/30 07:37:55;;;;;;;15.60;9.02;;;7.30;99.90;;;;;;5018300;28;20240;-83
2022/12/30 07:40:23;;;;;;;16.08;9.30;;;7.10;99.90;;;;;;5016248;28;20197;-83
2022/12/30 07:42:50;;;;;;;12.70;7.53;;;7.20;99.90;;;;;;5005200;28;20202;-83
2022/12/30 07:45:17;;;;;;;11.85;7.85;;;7.20;99.90;;;;;;5000014;28;20205;-84
2022/12/30 07:47:44;;;;;;;9.02;6.68;;;7.20;99.90;;;;;;5007358;28;20225;-83
2022/12/30 07:50:12;;;;;;;13.30;7.55;;;6.80;99.90;;;;;;5004718;28;20485;-84
2022/12/30 07:52:39;;;;;;;10.43;7.43;;;6.60;99.90;;;;;;5012482;28;20217;-85
2022/12/30 07:55:07;;;;;;;14.48;8.07;;;6.50;99.90;;;;;;5002838;28;20509;-86
2022/12/30 07:57:35;;;;;;;12.77;8.57;;;6.60;99.90;;;;;;5015341;28;20665;-85
2022/12/30 08:00:03;;;;;;;9.32;6.65;;;6.70;99.90;;;;;;5009485;28;20616;-84
2022/12/30 08:02:30;;;;;;;13.98;9.48;;;6.40;99.90;;;;;;4997288;28;20205;-84
2022/12/30 08:04:59;;;;;;;10.05;8.25;;;6.60;99.90;;;;;;5005164;28;20269;-84
2022/12/30 08:07:28;;;;;;;11.43;8.18;;;6.50;99.90;;;;;;5011006;28;20552;-84
2022/12/30 08:09:58;;;;;;;12.70;8.20;;;6.80;99.90;;;;;;4999343;28;20216;-85
2022/12/30 08:12:25;;;;;;;10.82;8.15;;;6.60;99.90;;;;;;4999864;28;20564;-84
2022/12/30 08:14:52;;;;;;;12.57;7.32;;;6.90;99.90;;;;;;5000373;28;20209;-85
2022/12/30 08:17:20;;;;;;;15.23;11.27;;;7.10;99.90;;;;;;5014883;28;20240;-86
2022/12/30 08:19:47;;;;;;;16.13;9.18;;;7.00;99.90;;;;;;5017268;28;20212;-84
2022/12/30 08:22:15;;;;;;;11.23;7.70;;;7.30;99.90;;;;;;5013739;28;20194;-86
2022/12/30 08:24:43;;;;;;;8.82;7.25;;;7.40;99.90;;;;;;5015651;28;20873;-84
2022/12/30 08:27:10;;;;;;;9.88;5.00;;;7.50;99.90;;;;;;5015988;28;20310;-84
2022/12/30 08:29:37;;;;;;;7.60;6.07;;;7.40;99.90;;;;;;5014762;28;20264;-85
2022/12/30 08:32:04;;;;;;;9.65;5.57;;;7.60;99.90;;;;;;5000783;28;20198;-85
2022/12/30 08:34:31;;;;;;;5.95;5.30;;;7.60;99.90;;;;;;5003083;28;20223;-85
2022/12/30 08:36:58;;;;;;;9.57;6.05;;;7.70;99.90;;;;;;5001217;28;20216;-85
2022/12/30 08:39:25;;;;;;;10.73;6.00;;;7.90;99.90;;;;;;5000636;28;20501;-85
2022/12/30 08:41:52;;;;;;;10.75;6.95;;;7.60;99.90;;;;;;5001202;28;20225;-84
2022/12/30 08:44:23;;;;;;;11.77;6.97;;;7.40;99.90;;;;;;5006005;28;20217;-86
2022/12/30 08:46:51;;;;;;;15.15;6.32;;;7.40;99.90;;;;;;5007864;28;20236;-87
2022/12/30 08:49:18;;;;;;;11.10;6.70;;;7.50;99.90;;;;;;5012392;28;20261;-87
2022/12/30 08:51:46;;;;;;;11.95;7.65;;;7.80;99.90;;;;;;5009103;28;20202;-86
2022/12/30 08:54:14;;;;;;;7.40;4.90;;;7.60;99.90;;;;;;5011592;28;20213;-86
2022/12/30 08:56:41;;;;;;;8.52;4.78;;;8.10;99.90;;;;;;5004605;28;20209;-86
2022/12/30 08:59:09;;;;;;;9.57;5.50;;;8.40;99.90;;;;;;5008095;28;20237;-84
2022/12/30 09:01:42;;;;;;;7.45;5.35;;;8.60;99.90;;;;;;4999558;28;20498;-85
2022/12/30 09:04:11;;;;;;;8.35;5.85;;;8.50;99.90;;;;;;5015333;28;20241;-85
2022/12/30 09:06:41;;;;;;;6.35;4.93;;;8.60;99.90;;;;;;4997207;28;20301;-85
2022/12/30 09:09:10;;;;;;;7.60;4.90;;;8.80;99.90;;;;;;5004149;28;20245;-87
2022/12/30 09:11:40;;;;;;;8.10;4.78;;;8.80;99.90;;;;;;5012393;28;20286;-86
2022/12/30 09:14:09;;;;;;;6.88;5.40;;;8.80;99.90;;;;;;5018291;28;20214;-85
2022/12/30 09:16:36;;;;;;;17.65;5.38;;;9.00;99.90;;;;;;5003024;28;20216;-85
2022/12/30 09:19:03;;;;;;;7.70;4.68;;;9.20;99.90;;;;;;5000880;28;20212;-85
2022/12/30 09:21:30;;;;;;;5.57;5.07;;;9.10;99.90;;;;;;5009070;28;20443;-86
2022/12/30 09:23:57;;;;;;;10.20;6.45;;;9.20;99.90;;;;;;5007924;28;20269;-84
2022/12/30 09:26:26;;;;;;;9.50;6.35;;;9.30;99.90;;;;;;5006681;28;20447;-85
2022/12/30 09:28:53;;;;;;;5.80;5.20;;;9.10;99.90;;;;;;5011610;28;20220;-86
2022/12/30 09:31:20;;;;;;;8.95;5.85;;;9.00;99.90;;;;;;5005990;28;20258;-83
2022/12/30 09:33:47;;;;;;;10.23;5.00;;;8.80;99.90;;;;;;5001203;28;20199;-84
2022/12/30 09:36:14;;;;;;;12.18;5.88;;;8.70;99.90;;;;;;5008782;28;20207;-85
2022/12/30 09:38:41;;;;;;;8.00;5.38;;;8.80;99.90;;;;;;5015760;28;20206;-84
2022/12/30 09:41:15;;;;;;;6.45;4.97;;;9.10;99.90;;;;;;5018955;28;20199;-84
2022/12/30 09:43:52;;;;;;;7.20;5.00;;;9.20;99.90;;;;;;5016355;28;20220;-86
2022/12/30 09:46:25;;;;;;;7.70;5.15;;;9.50;99.90;;;;;;4993462;28;20266;-86
2022/12/30 09:48:58;;;;;;;13.50;5.60;;;9.90;99.90;;;;;;5000444;28;20328;-85
2022/12/30 09:51:40;;;;;;;8.23;4.95;;;10.10;99.90;;;;;;5000681;28;20448;-85
2022/12/30 09:54:14;;;;;;;6.95;5.45;;;10.20;99.90;;;;;;5000869;28;20255;-87
2022/12/30 09:56:44;;;;;;;8.80;4.15;;;10.50;99.90;;;;;;5001922;28;20320;-86
2022/12/30 09:59:20;;;;;;;6.55;5.30;;;10.40;99.90;;;;;;5015876;28;20212;-85
2022/12/30 10:01:53;;;;;;;6.88;5.47;;;10.80;99.90;;;;;;5015882;28;20204;-85
2022/12/30 10:04:20;;;;;;;6.95;6.25;;;10.90;99.90;;;;;;5004228;28;20213;-85
2022/12/30 10:07:29;;;;;;;11.63;6.50;;;11.00;99.90;;;;;;5010179;28;20455;-86
2022/12/30 10:10:04;;;;;;;8.32;6.18;;;10.90;99.90;;;;;;4997170;28;20204;-84
2022/12/30 10:13:10;;;;;;;10.45;7.70;;;10.70;99.90;;;;;;5015701;28;20244;-83
2022/12/30 10:16:07;;;;;;;11.98;7.90;;;10.50;99.90;;;;;;5004702;28;20200;-84
2022/12/30 10:18:44;;;;;;;9.68;6.53;;;10.30;99.90;;;;;;5017922;28;20197;-84
2022/12/30 10:21:49;;;;;;;10.50;5.85;;;10.30;99.90;;;;;;5007766;28;20215;-85
2022/12/30 10:24:47;;;;;;;12.90;6.30;;;10.10;99.90;;;;;;4991379;28;20204;-84
2022/12/30 10:27:26;;;;;;;12.25;5.93;;;10.10;99.90;;;;;;5006958;28;20293;-85
2022/12/30 10:29:54;;;;;;;16.23;8.40;;;10.00;99.90;;;;;;5003241;28;20196;-85
2022/12/30 10:32:31;;;;;;;16.85;7.20;;;10.00;99.90;;;;;;5005070;28;20259;-84
2022/12/30 10:35:26;;;;;;;10.95;5.07;;;9.90;99.90;;;;;;5001114;28;20212;-85
2022/12/30 10:38:17;;;;;;;8.90;5.20;;;10.00;99.90;;;;;;5001144;28;20208;-86
2022/12/30 10:41:22;;;;;;;8.05;4.72;;;9.90;99.90;;;;;;5015516;28;20226;-84
2022/12/30 10:44:41;;;;;;;7.05;4.82;;;9.70;99.90;;;;;;5009209;28;20241;-84
2022/12/30 10:47:33;;;;;;;13.65;4.90;;;9.70;99.90;;;;;;5010237;28;20465;-84
2022/12/30 10:50:14;;;;;;;6.68;4.18;;;9.70;99.90;;;;;;5007701;28;20231;-85
2022/12/30 10:52:41;;;;;;;5.13;4.60;;;10.00;99.90;;;;;;5015819;28;20220;-86
2022/12/30 10:55:26;;;;;;;8.52;4.35;;;9.90;99.90;;;;;;5020306;28;20204;-83
2022/12/30 10:57:59;;;;;;;11.35;4.35;;;9.70;99.90;;;;;;5012320;28;20274;-87
2022/12/30 11:00:27;;;;;;;6.38;3.35;;;9.70;99.90;;;;;;5013692;28;20231;-89
2022/12/30 11:03:03;;;;;;;10.13;4.68;;;9.80;99.90;;;;;;5012025;28;20210;-90
2022/12/30 11:05:38;;;;;;;4.43;3.40;;;9.90;99.90;;;;;;5007636;28;20212;-88
2022/12/30 11:08:18;;;;;;;4.25;3.75;;;9.90;99.90;;;;;;5019085;28;20302;-88
2022/12/30 11:11:06;;;;;;;7.35;5.40;;;10.10;99.90;;;;;;5012347;28;20379;-90
2022/12/30 11:16:30;;;;;;;4.85;2.80;;;10.20;99.90;;;;;;5002068;28;20208;-85
2022/12/30 11:19:00;;;;;;;4.72;3.10;;;10.10;99.90;;;;;;5010791;28;20208;-84
2022/12/30 11:21:38;;;;;;;3.40;2.70;;;10.10;99.90;;;;;;5012576;28;20823;-84
2022/12/30 11:24:16;;;;;;;14.93;6.85;;;10.30;99.90;;;;;;5011705;28;20212;-83
2022/12/30 11:26:48;;;;;;;25.77;8.10;;;10.10;99.90;;;;;;5008853;28;20219;-85
2022/12/30 11:29:20;;;;;;;12.25;4.90;;;10.10;99.90;;;;;;5005060;28;20346;-85
2022/12/30 11:31:51;;;;;;;7.85;4.60;;;10.00;99.90;;;;;;5000613;28;20561;-83
2022/12/30 11:34:26;;;;;;;6.40;2.67;;;10.10;99.90;;;;;;5004623;28;20204;-85
2022/12/30 11:36:53;;;;;;;4.97;3.03;;;10.50;99.90;;;;;;4994411;28;20255;-83
2022/12/30 11:39:25;;;;;;;13.27;6.30;;;10.50;99.90;;;;;;5012628;28;20214;-84
2022/12/30 11:41:59;;;;;;;8.90;4.18;;;10.30;99.90;;;;;;5020631;28;20229;-90
2022/12/30 11:44:29;;;;;;;17.05;4.18;;;10.30;99.90;;;;;;5015837;28;20735;-90
2022/12/30 11:47:15;;;;;;;5.82;3.63;;;10.40;99.90;;;;;;5005632;28;20209;-89
2022/12/30 11:49:50;;;;;;;9.38;4.20;;;10.50;99.90;;;;;;5006024;28;20220;-89
2022/12/30 11:52:24;;;;;;;5.65;3.42;;;10.60;99.90;;;;;;5014052;28;20200;-89
2022/12/30 11:54:55;;;;;;;8.88;4.50;;;10.60;99.90;;;;;;5004990;28;20193;-88
2022/12/30 11:57:22;;;;;;;5.65;3.75;;;10.60;99.90;;;;;;5005156;28;20205;-87
2022/12/30 11:59:52;;;;;;;7.18;2.67;;;10.70;99.90;;;;;;5005630;28;20255;-89
2022/12/30 12:02:34;;;;;;;5.72;3.10;;;10.70;99.90;;;;;;5003930;28;20261;-88
2022/12/30 12:05:27;;;;;;;6.32;4.50;;;10.60;99.90;;;;;;5004471;28;20212;-89
2022/12/30 12:08:12;;;;;;;7.20;4.15;;;10.30;99.90;;;;;;5000689;28;20231;-88
2022/12/30 12:10:42;;;;;;;7.68;4.20;;;10.20;99.90;;;;;;5019642;28;20208;-88
2022/12/30 12:13:21;;;;;;;8.52;4.65;;;10.10;99.90;;;;;;5015911;28;20228;-89
2022/12/30 12:15:57;;;;;;;5.75;5.15;;;10.20;99.90;;;;;;5024367;28;20218;-88
2022/12/30 12:18:35;;;;;;;8.60;4.13;;;10.10;99.90;;;;;;5005300;28;20260;-88
2022/12/30 12:21:27;;;;;;;6.80;5.38;;;10.20;99.90;;;;;;5018343;28;20275;-88
2022/12/30 12:24:22;;;;;;;7.22;4.13;;;10.40;99.90;;;;;;5007767;28;20211;-84
2022/12/30 12:27:05;;;;;;;5.18;4.07;;;10.30;99.90;;;;;;4992822;28;20212;-84
2022/12/30 12:29:34;;;;;;;4.00;3.10;;;10.30;99.90;;;;;;5014604;28;20212;-83
2022/12/30 12:32:08;;;;;;;4.18;3.25;;;10.20;99.90;;;;;;5017122;28;20233;-83
2022/12/30 12:35:26;;;;;;;7.30;4.60;;;10.00;99.90;;;;;;4998506;28;20208;-83
2022/12/30 12:38:09;;;;;;;5.88;2.80;;;10.10;99.90;;;;;;5001442;28;20213;-83
2022/12/30 12:40:48;;;;;;;8.55;4.70;;;10.00;99.90;;;;;;5018865;28;20207;-82
2022/12/30 12:43:54;;;;;;;8.13;4.90;;;10.30;99.90;;;;;;5012386;28;20212;-84
2022/12/30 12:47:05;;;;;;;10.32;4.85;;;10.10;99.90;;;;;;5012821;28;20211;-83
2022/12/30 12:49:49;;;;;;;10.13;5.15;;;10.10;99.90;;;;;;5002833;28;20235;-84
2022/12/30 12:53:00;;;;;;;25.95;9.65;;;10.30;99.90;;;;;;4997961;28;20202;-83
2022/12/30 12:55:39;;;;;;;29.17;8.15;;;10.40;99.90;;;;;;4999695;28;20212;-83
2022/12/30 12:58:31;;;;;;;16.30;6.20;;;10.20;99.90;;;;;;5001209;28;20216;-83
2022/12/30 13:01:26;;;;;;;9.05;4.10;;;10.40;99.90;;;;;;5004071;28;20208;-84
2022/12/30 13:04:03;;;;;;;4.97;3.40;;;10.00;99.90;;;;;;5020562;28;20326;-83
2022/12/30 13:06:55;;;;;;;9.68;5.30;;;9.90;99.90;;;;;;5002710;28;20208;-83
2022/12/30 13:09:36;;;;;;;11.82;6.00;;;9.80;99.90;;;;;;4998425;28;20627;-83
2022/12/30 13:12:36;;;;;;;10.30;5.55;;;9.60;99.90;;;;;;5000095;28;20228;-84
2022/12/30 13:15:26;;;;;;;17.58;8.90;;;9.80;99.90;;;;;;4986509;28;20238;-84
2022/12/30 13:17:58;;;;;;;10.10;7.13;;;9.80;99.90;;;;;;4996603;28;20213;-83
2022/12/30 13:20:30;;;;;;;14.45;7.35;;;9.80;99.90;;;;;;4999847;28;20221;-84
2022/12/30 13:23:04;;;;;;;13.25;6.50;;;9.80;99.90;;;;;;4999453;28;20219;-84
2022/12/30 13:25:42;;;;;;;8.25;5.70;;;9.90;99.90;;;;;;5003153;28;20259;-85
2022/12/30 13:28:22;;;;;;;9.00;6.32;;;9.90;99.90;;;;;;4993177;28;20462;-83
2022/12/30 13:31:27;;;;;;;14.48;6.63;;;10.10;99.90;;;;;;4999616;28;20205;-84
2022/12/30 13:34:07;;;;;;;12.00;5.97;;;10.10;99.90;;;;;;4987547;28;20232;-83
2022/12/30 13:36:56;;;;;;;11.18;7.03;;;9.90;99.90;;;;;;4998221;28;20239;-82
2022/12/30 13:39:35;;;;;;;13.07;8.15;;;9.60;99.90;;;;;;4998108;28;20212;-83
2022/12/30 13:42:14;;;;;;;13.48;7.13;;;9.60;99.90;;;;;;5001363;28;20400;-83
2022/12/30 13:44:45;;;;;;;7.57;5.00;;;9.50;99.90;;;;;;5006559;28;20219;-84
2022/12/30 13:47:39;;;;;;;6.63;5.28;;;9.50;99.90;;;;;;4999874;28;20397;-84
2022/12/30 13:50:12;;;;;;;5.90;5.30;;;9.20;99.90;;;;;;4996994;28;20208;-82
2022/12/30 13:52:45;;;;;;;11.32;6.75;;;9.30;99.90;;;;;;4999177;28;20209;-83
2022/12/30 13:55:21;;;;;;;6.85;5.15;;;9.40;99.90;;;;;;5001212;28;20211;-83
2022/12/30 13:57:56;;;;;;;12.18;6.40;;;9.20;99.90;;;;;;5000248;28;20220;-81
2022/12/30 14:00:30;;;;;;;11.20;6.28;;;9.10;99.90;;;;;;5007593;28;20208;-84
2022/12/30 14:03:03;;;;;;;8.75;6.20;;;9.10;99.90;;;;;;5003279;28;20204;-84
2022/12/30 14:05:39;;;;;;;6.63;5.63;;;9.00;99.90;;;;;;4997232;28;20227;-83
2022/12/30 14:08:24;;;;;;;21.40;8.63;;;9.10;99.90;;;;;;5002183;28;20230;-83
2022/12/30 14:11:00;;;;;;;9.15;6.65;;;8.90;99.90;;;;;;5001495;28;20207;-83
2022/12/30 14:13:27;;;;;;;7.60;6.13;;;9.10;99.90;;;;;;5005663;28;20223;-86
2022/12/30 14:16:32;;;;;;;12.02;6.70;;;8.80;99.90;;;;;;5007657;28;20561;-84
2022/12/30 14:19:01;;;;;;;9.73;6.60;;;8.80;99.90;;;;;;5002092;28;20247;-82
2022/12/30 14:21:57;;;;;;;8.02;6.00;;;8.70;99.90;;;;;;5002331;28;20217;-83
2022/12/30 14:24:30;;;;;;;9.43;7.43;;;8.80;99.90;;;;;;4987569;28;20202;-82
2022/12/30 14:26:58;;;;;;;8.20;6.50;;;8.70;99.90;;;;;;5003712;28;20211;-83
2022/12/30 14:29:34;;;;;;;8.55;7.63;;;8.70;99.90;;;;;;5006552;28;20489;-82
2022/12/30 14:32:05;;;;;;;8.80;7.97;;;8.50;99.90;;;;;;5005066;28;20441;-82
2022/12/30 14:34:42;;;;;;;9.75;8.10;;;8.50;99.90;;;;;;5001320;28;20215;-84
2022/12/30 14:37:12;;;;;;;10.68;7.15;;;8.50;99.90;;;;;;5000763;28;20211;-84
2022/12/30 14:39:39;;;;;;;10.27;6.65;;;8.30;99.90;;;;;;5001674;28;20245;-85
2022/12/30 14:42:25;;;;;;;17.75;6.75;;;8.10;99.90;;;;;;5000901;28;20214;-85
2022/12/30 14:44:55;;;;;;;7.47;6.78;;;8.10;99.90;;;;;;5000954;28;20235;-85
2022/12/30 14:47:46;;;;;;;13.82;7.75;;;8.10;99.90;;;;;;5012979;28;20214;-84
2022/12/30 14:50:21;;;;;;;7.13;6.22;;;8.10;99.90;;;;;;5017414;28;20269;-84
2022/12/30 14:52:53;;;;;;;12.02;8.70;;;8.00;99.90;;;;;;5014728;28;20205;-85
2022/12/30 14:55:23;;;;;;;13.18;7.00;;;7.80;99.90;;;;;;5001341;28;20250;-85
2022/12/30 14:58:20;;;;;;;14.48;7.50;;;7.70;99.90;;;;;;5011275;28;20243;-84
2022/12/30 15:00:50;;;;;;;12.13;7.60;;;7.80;99.90;;;;;;5001048;28;20206;-86
2022/12/30 15:03:21;;;;;;;16.05;8.70;;;7.70;99.90;;;;;;5007972;28;20206;-86
2022/12/30 15:05:58;;;;;;;13.93;9.52;;;7.80;99.90;;;;;;5001814;28;20205;-83
2022/12/30 15:08:34;;;;;;;14.43;8.82;;;7.80;99.90;;;;;;5004347;28;20237;-83
2022/12/30 15:11:04;;;;;;;14.95;8.93;;;7.60;99.90;;;;;;5013857;28;20251;-86
2022/12/30 15:13:49;;;;;;;11.40;7.00;;;7.50;99.90;;;;;;5012775;28;20278;-85
2022/12/30 15:16:22;;;;;;;12.85;8.40;;;7.40;99.90;;;;;;4993391;28;20205;-85
2022/12/30 15:18:52;;;;;;;7.88;7.00;;;7.30;99.90;;;;;;5011072;28;20740;-83
2022/12/30 15:21:22;;;;;;;10.13;7.18;;;7.40;99.90;;;;;;5015208;28;20192;-83
2022/12/30 15:24:01;;;;;;;10.57;7.47;;;7.30;99.90;;;;;;5021494;28;20240;-85
2022/12/30 15:26:39;;;;;;;9.20;7.85;;;7.10;99.90;;;;;;5016639;28;20236;-83
2022/12/30 15:29:15;;;;;;;12.68;6.97;;;7.00;99.90;;;;;;5021873;28;20225;-84
2022/12/30 15:31:51;;;;;;;19.40;7.80;;;6.90;99.90;;;;;;5023340;28;20208;-84
2022/12/30 15:34:24;;;;;;;8.93;7.07;;;6.80;99.90;;;;;;5019902;28;20229;-84
2022/12/30 15:36:52;;;;;;;10.05;6.63;;;6.80;99.90;;;;;;4995514;28;20225;-85
2022/12/30 15:39:19;;;;;;;8.65;7.43;;;6.80;99.90;;;;;;5004717;28;20214;-85
2022/12/30 15:41:47;;;;;;;13.15;7.57;;;7.00;99.90;;;;;;5013234;28;20244;-85
2022/12/30 15:44:19;;;;;;;10.65;7.40;;;6.70;99.90;;;;;;5005960;28;20202;-85
2022/12/30 15:46:56;;;;;;;10.65;7.25;;;6.60;99.90;;;;;;4991490;28;20236;-85
2022/12/30 15:49:26;;;;;;;9.85;7.25;;;6.70;99.90;;;;;;5014058;28;20294;-85
2022/12/30 15:52:04;;;;;;;17.70;8.50;;;6.90;99.90;;;;;;5010687;28;20218;-85
2022/12/30 15:54:43;;;;;;;9.57;6.47;;;6.70;99.90;;;;;;5012183;28;20217;-83
2022/12/30 15:57:33;;;;;;;11.30;7.80;;;6.70;99.90;;;;;;5013637;28;20208;-83
2022/12/30 16:00:18;;;;;;;15.40;9.20;;;6.70;99.90;;;;;;5009663;28;20186;-85
2022/12/30 16:02:45;;;;;;;12.02;7.72;;;6.70;99.90;;;;;;5016884;28;20645;-84
2022/12/30 16:05:29;;;;;;;12.13;9.30;;;6.60;99.90;;;;;;5014253;28;20209;-85
2022/12/30 16:08:22;;;;;;;19.88;9.85;;;6.50;99.90;;;;;;5001813;28;20202;-85
2022/12/30 16:11:14;;;;;;;18.88;9.93;;;6.60;99.90;;;;;;5015590;28;20243;-85
2022/12/30 16:13:44;;;;;;;16.35;8.23;;;6.60;99.90;;;;;;5011308;28;20236;-84
2022/12/30 16:16:34;;;;;;;15.10;10.48;;;6.60;99.90;;;;;;5005286;28;20563;-86
2022/12/30 16:19:09;;;;;;;11.00;8.15;;;6.50;99.90;;;;;;5005600;28;20218;-84
2022/12/30 16:21:39;;;;;;;10.80;6.47;;;6.30;99.90;;;;;;5012267;28;20205;-86
2022/12/30 16:24:28;;;;;;;10.10;7.70;;;6.20;99.90;;;;;;5010606;28;20268;-86
2022/12/30 16:27:00;;;;;;;16.33;9.77;;;6.30;99.90;;;;;;5001696;28;20211;-85
2022/12/30 16:29:30;;;;;;;12.43;7.97;;;6.30;99.90;;;;;;5011090;28;20249;-83
2022/12/30 16:31:57;;;;;;;17.80;9.73;;;6.20;99.90;;;;;;5006497;28;20487;-86
2022/12/30 16:34:24;;;;;;;12.65;9.50;;;6.10;99.90;;;;;;5011483;28;20201;-83
2022/12/30 16:36:53;;;;;;;13.77;8.57;;;6.20;99.90;;;;;;5006682;28;20243;-84
2022/12/30 16:39:40;;;;;;;17.83;10.30;;;6.20;99.90;;;;;;5010590;28;20227;-84
2022/12/30 16:42:11;;;;;;;14.77;9.70;;;6.10;99.90;;;;;;5014842;28;20213;-84
2022/12/30 16:44:38;;;;;;;16.75;9.38;;;6.10;99.90;;;;;;5016126;28;20287;-85
2022/12/30 16:47:05;;;;;;;15.10;11.13;;;6.00;99.90;;;;;;5009584;28;20208;-88
2022/12/30 16:49:32;;;;;;;20.50;12.65;;;5.90;99.90;;;;;;5012430;28;20217;-84
2022/12/30 16:52:00;;;;;;;17.50;10.90;;;5.80;99.90;;;;;;5021104;28;20201;-84
2022/12/30 16:54:27;;;;;;;15.20;11.30;;;5.80;99.90;;;;;;5010322;28;20227;-84
2022/12/30 16:56:55;;;;;;;17.63;11.48;;;5.80;99.90;;;;;;5007567;28;20820;-83
2022/12/30 16:59:23;;;;;;;24.10;13.25;;;5.80;99.90;;;;;;5005232;28;20667;-85
2022/12/30 17:01:54;;;;;;;17.48;10.80;;;5.80;99.90;;;;;;5006103;28;20320;-83
2022/12/30 17:04:21;;;;;;;17.77;11.30;;;5.80;99.90;;;;;;5018093;28;20197;-85
2022/12/30 17:06:51;;;;;;;35.33;14.63;;;5.90;99.90;;;;;;5005582;28;20209;-85
2022/12/30 17:12:07;;;;;;;25.80;14.80;;;5.80;99.90;;;;;;4999031;28;20759;-83
2022/12/30 17:14:36;;;;;;;19.08;14.30;;;5.80;99.90;;;;;;5016687;28;20493;-84
2022/12/30 17:17:05;;;;;;;25.38;13.23;;;5.90;99.90;;;;;;5014307;28;20521;-85
2022/12/30 17:19:33;;;;;;;17.55;12.30;;;5.80;99.90;;;;;;5009909;28;20263;-85
2022/12/30 17:22:00;;;;;;;27.30;15.75;;;5.70;99.90;;;;;;5004963;28;20213;-84
2022/12/30 17:24:27;;;;;;;18.23;12.98;;;5.70;99.90;;;;;;5008616;28;20209;-86
2022/12/30 17:26:54;;;;;;;20.80;13.73;;;5.70;99.90;;;;;;5009461;28;20208;-85
2022/12/30 17:29:22;;;;;;;23.10;15.05;;;5.60;99.90;;;;;;5010707;28;20213;-83
2022/12/30 17:31:51;;;;;;;26.35;14.88;;;5.70;99.90;;;;;;4997434;28;20308;-85
2022/12/30 17:34:18;;;;;;;17.88;12.57;;;5.70;99.90;;;;;;5013464;28;20205;-87
2022/12/30 17:36:45;;;;;;;16.85;12.35;;;5.60;99.90;;;;;;5013006;28;20512;-83
2022/12/30 17:39:13;;;;;;;20.17;12.55;;;5.50;99.90;;;;;;5005468;28;20213;-84
2022/12/30 17:41:40;;;;;;;18.63;11.80;;;5.50;99.90;;;;;;5011225;28;20276;-89
2022/12/30 17:44:07;;;;;;;23.23;13.38;;;5.60;99.90;;;;;;5008306;28;20205;-85
2022/12/30 17:46:37;;;;;;;14.65;9.65;;;5.60;99.90;;;;;;5006171;28;20198;-85
2022/12/30 17:49:05;;;;;;;21.77;12.00;;;5.70;99.90;;;;;;5011082;28;20279;-85
2022/12/30 17:51:32;;;;;;;25.98;14.70;;;5.80;99.90;;;;;;5006803;28;20359;-83
2022/12/30 17:53:59;;;;;;;20.90;11.80;;;5.80;99.90;;;;;;5010578;28;20205;-85
2022/12/30 17:56:26;;;;;;;18.83;13.77;;;5.70;99.90;;;;;;5010411;28;20219;-87
2022/12/30 17:58:54;;;;;;;18.67;11.23;;;5.70;99.90;;;;;;5005470;28;20276;-85
2022/12/30 18:01:28;;;;;;;18.83;13.50;;;5.60;99.90;;;;;;4998935;28;20206;-86
2022/12/30 18:03:57;;;;;;;18.80;12.93;;;5.60;99.90;;;;;;4999730;28;20250;-84
2022/12/30 18:06:24;;;;;;;20.85;12.23;;;5.60;99.90;;;;;;5007806;28;20210;-83
2022/12/30 18:08:51;;;;;;;24.88;13.65;;;5.70;99.90;;;;;;5010095;28;20260;-87
2022/12/30 18:11:27;;;;;;;17.10;10.90;;;5.70;99.90;;;;;;5010441;28;20232;-84
2022/12/30 18:13:54;;;;;;;15.15;11.10;;;5.80;99.90;;;;;;5017120;28;20220;-84
2022/12/30 18:16:25;;;;;;;15.98;11.88;;;5.80;99.90;;;;;;5017337;28;20178;-83
2022/12/30 18:18:53;;;;;;;20.00;10.18;;;5.70;99.90;;;;;;5021326;28;20241;-84
2022/12/30 18:21:24;;;;;;;17.02;9.52;;;5.50;99.90;;;;;;5009478;28;20529;-85
2022/12/30 18:23:53;;;;;;;13.35;8.73;;;5.60;99.90;;;;;;5004521;28;20197;-87